Armstrong Mills, Ohio
Current Conditions -  °F | °C
As of 8:24 PM on Wednesday 26 Nov 2014 (Local Time) from KHLG Reporting Station
Haze Haze  
Wind Chill: 32°   Ceiling: 500
Heat Index: 32°   Visibility: 3mi
Dew Point: 31°   Wind: 0mph
Humidity: 96%   Direction: NA
Pressure: 30.01"   Gusts: NA
Location:  39.9375°N, 80.8976°W
Report Text: KHLG 270124Z 00000KT 3SM BR OVC005 00/M01 A3001 RMK AO2 T00001006
Loading
Personal Weather Stations






























Interactive Weather Map New forecast layout! Learn more

10-Day Weather Forecast

Advertisements
Track Severe Weather on mobile